sensor_id;sensor_type;location;lat;lon;timestamp;P1;durP1;ratioP1;P2;durP2;ratioP2
57858;SDS011;49153;45.568;11.894;2023-02-01T00:01:17;90.07;;;42.13;;
57858;SDS011;49153;45.568;11.894;2023-02-01T00:03:43;89.13;;;41.33;;
57858;SDS011;49153;45.568;11.894;2023-02-01T00:06:09;88.25;;;40.40;;
57858;SDS011;49153;45.568;11.894;2023-02-01T00:08:34;100.70;;;43.15;;
57858;SDS011;49153;45.568;11.894;2023-02-01T00:11:00;102.72;;;44.78;;
57858;SDS011;49153;45.568;11.894;2023-02-01T00:13:31;107.55;;;46.03;;
57858;SDS011;49153;45.568;11.894;2023-02-01T00:18:34;96.30;;;43.97;;
57858;SDS011;49153;45.568;11.894;2023-02-01T00:21:00;109.95;;;48.92;;
57858;SDS011;49153;45.568;11.894;2023-02-01T00:23:26;103.50;;;44.60;;
57858;SDS011;49153;45.568;11.894;2023-02-01T00:25:52;101.93;;;44.58;;
57858;SDS011;49153;45.568;11.894;2023-02-01T00:28:18;103.80;;;44.97;;
57858;SDS011;49153;45.568;11.894;2023-02-01T00:30:44;97.35;;;43.67;;
57858;SDS011;49153;45.568;11.894;2023-02-01T00:33:09;89.78;;;42.15;;
57858;SDS011;49153;45.568;11.894;2023-02-01T00:35:35;93.07;;;42.05;;
57858;SDS011;49153;45.568;11.894;2023-02-01T00:38:01;87.90;;;40.40;;
57858;SDS011;49153;45.568;11.894;2023-02-01T00:40:26;97.43;;;42.50;;
57858;SDS011;49153;45.568;11.894;2023-02-01T00:42:51;87.15;;;39.50;;
57858;SDS011;49153;45.568;11.894;2023-02-01T00:45:17;96.38;;;44.10;;
57858;SDS011;49153;45.568;11.894;2023-02-01T00:47:43;90.78;;;41.22;;
57858;SDS011;49153;45.568;11.894;2023-02-01T00:50:09;102.35;;;46.45;;
57858;SDS011;49153;45.568;11.894;2023-02-01T00:52:35;113.25;;;47.28;;
57858;SDS011;49153;45.568;11.894;2023-02-01T00:55:00;107.70;;;46.75;;
57858;SDS011;49153;45.568;11.894;2023-02-01T00:57:25;101.32;;;45.40;;
57858;SDS011;49153;45.568;11.894;2023-02-01T00:59:51;102.75;;;44.42;;
57858;SDS011;49153;45.568;11.894;2023-02-01T01:02:16;89.57;;;40.13;;
57858;SDS011;49153;45.568;11.894;2023-02-01T01:04:42;86.95;;;38.88;;
57858;SDS011;49153;45.568;11.894;2023-02-01T01:07:08;87.05;;;38.00;;
57858;SDS011;49153;45.568;11.894;2023-02-01T01:09:34;83.50;;;37.70;;
57858;SDS011;49153;45.568;11.894;2023-02-01T01:12:00;87.78;;;38.35;;
57858;SDS011;49153;45.568;11.894;2023-02-01T01:14:29;88.18;;;38.90;;
57858;SDS011;49153;45.568;11.894;2023-02-01T01:16:55;86.97;;;39.45;;
57858;SDS011;49153;45.568;11.894;2023-02-01T01:19:20;95.22;;;42.40;;
57858;SDS011;49153;45.568;11.894;2023-02-01T01:21:46;94.78;;;41.17;;
57858;SDS011;49153;45.568;11.894;2023-02-01T01:24:11;106.03;;;44.83;;
57858;SDS011;49153;45.568;11.894;2023-02-01T01:26:36;102.18;;;43.58;;
57858;SDS011;49153;45.568;11.894;2023-02-01T01:29:02;98.88;;;43.67;;
57858;SDS011;49153;45.568;11.894;2023-02-01T01:31:28;99.03;;;43.00;;
57858;SDS011;49153;45.568;11.894;2023-02-01T01:33:56;102.93;;;44.78;;
57858;SDS011;49153;45.568;11.894;2023-02-01T01:36:26;108.93;;;45.72;;
57858;SDS011;49153;45.568;11.894;2023-02-01T01:38:51;103.65;;;44.60;;
57858;SDS011;49153;45.568;11.894;2023-02-01T01:41:18;92.00;;;39.85;;
57858;SDS011;49153;45.568;11.894;2023-02-01T01:43:49;85.43;;;37.53;;
57858;SDS011;49153;45.568;11.894;2023-02-01T01:46:26;91.30;;;39.22;;
57858;SDS011;49153;45.568;11.894;2023-02-01T01:51:32;102.05;;;41.20;;
57858;SDS011;49153;45.568;11.894;2023-02-01T01:54:05;97.53;;;41.80;;
57858;SDS011;49153;45.568;11.894;2023-02-01T01:56:36;91.57;;;40.83;;
57858;SDS011;49153;45.568;11.894;2023-02-01T01:59:03;87.43;;;38.22;;
57858;SDS011;49153;45.568;11.894;2023-02-01T02:01:30;85.47;;;36.42;;
57858;SDS011;49153;45.568;11.894;2023-02-01T02:03:56;89.20;;;37.38;;
57858;SDS011;49153;45.568;11.894;2023-02-01T02:06:28;79.97;;;32.88;;
57858;SDS011;49153;45.568;11.894;2023-02-01T02:09:01;71.78;;;31.23;;
57858;SDS011;49153;45.568;11.894;2023-02-01T02:11:28;74.68;;;29.90;;
57858;SDS011;49153;45.568;11.894;2023-02-01T02:13:54;79.07;;;33.30;;
57858;SDS011;49153;45.568;11.894;2023-02-01T02:16:35;75.38;;;33.28;;
57858;SDS011;49153;45.568;11.894;2023-02-01T02:27:46;66.90;;;28.23;;
57858;SDS011;49153;45.568;11.894;2023-02-01T02:39:06;62.08;;;27.95;;
57858;SDS011;49153;45.568;11.894;2023-02-01T02:53:13;78.55;;;33.05;;
57858;SDS011;49153;45.568;11.894;2023-02-01T02:56:02;81.00;;;33.25;;
57858;SDS011;49153;45.568;11.894;2023-02-01T02:58:49;75.55;;;32.88;;
57858;SDS011;49153;45.568;11.894;2023-02-01T03:01:35;81.43;;;33.55;;
57858;SDS011;49153;45.568;11.894;2023-02-01T03:04:19;67.50;;;30.58;;
57858;SDS011;49153;45.568;11.894;2023-02-01T03:06:46;70.82;;;31.88;;
57858;SDS011;49153;45.568;11.894;2023-02-01T03:09:18;78.38;;;33.08;;
57858;SDS011;49153;45.568;11.894;2023-02-01T03:11:48;84.63;;;38.15;;
57858;SDS011;49153;45.568;11.894;2023-02-01T03:14:38;75.25;;;32.25;;
57858;SDS011;49153;45.568;11.894;2023-02-01T03:17:12;71.32;;;30.83;;
57858;SDS011;49153;45.568;11.894;2023-02-01T03:19:43;70.15;;;31.00;;
57858;SDS011;49153;45.568;11.894;2023-02-01T03:22:14;78.13;;;33.83;;
57858;SDS011;49153;45.568;11.894;2023-02-01T03:24:56;80.38;;;35.28;;
57858;SDS011;49153;45.568;11.894;2023-02-01T03:27:53;69.30;;;29.73;;
57858;SDS011;49153;45.568;11.894;2023-02-01T03:30:27;68.07;;;30.13;;
57858;SDS011;49153;45.568;11.894;2023-02-01T03:32:56;73.18;;;33.08;;
57858;SDS011;49153;45.568;11.894;2023-02-01T03:35:27;73.70;;;33.95;;
57858;SDS011;49153;45.568;11.894;2023-02-01T03:44:08;73.85;;;31.95;;
57858;SDS011;49153;45.568;11.894;2023-02-01T03:46:40;70.30;;;31.90;;
57858;SDS011;49153;45.568;11.894;2023-02-01T03:49:11;74.03;;;31.98;;
57858;SDS011;49153;45.568;11.894;2023-02-01T03:51:43;74.32;;;33.95;;
57858;SDS011;49153;45.568;11.894;2023-02-01T03:54:09;71.88;;;33.15;;
57858;SDS011;49153;45.568;11.894;2023-02-01T03:56:39;74.88;;;32.35;;
57858;SDS011;49153;45.568;11.894;2023-02-01T03:59:09;81.60;;;35.08;;
57858;SDS011;49153;45.568;11.894;2023-02-01T04:01:35;74.60;;;33.42;;
57858;SDS011;49153;45.568;11.894;2023-02-01T04:04:00;75.88;;;35.03;;
57858;SDS011;49153;45.568;11.894;2023-02-01T04:06:26;75.72;;;33.22;;
57858;SDS011;49153;45.568;11.894;2023-02-01T04:08:51;71.45;;;31.60;;
57858;SDS011;49153;45.568;11.894;2023-02-01T04:11:17;72.53;;;33.63;;
57858;SDS011;49153;45.568;11.894;2023-02-01T04:13:43;77.22;;;35.75;;
57858;SDS011;49153;45.568;11.894;2023-02-01T04:16:08;72.13;;;33.58;;
57858;SDS011;49153;45.568;11.894;2023-02-01T04:18:34;80.65;;;38.78;;
57858;SDS011;49153;45.568;11.894;2023-02-01T04:21:00;77.35;;;36.20;;
57858;SDS011;49153;45.568;11.894;2023-02-01T04:23:27;81.82;;;37.08;;
57858;SDS011;49153;45.568;11.894;2023-02-01T04:25:53;83.32;;;35.85;;
57858;SDS011;49153;45.568;11.894;2023-02-01T04:28:19;55.05;;;25.70;;
57858;SDS011;49153;45.568;11.894;2023-02-01T04:30:45;67.75;;;31.35;;
57858;SDS011;49153;45.568;11.894;2023-02-01T04:33:11;75.28;;;32.63;;
57858;SDS011;49153;45.568;11.894;2023-02-01T04:35:39;80.28;;;34.30;;
57858;SDS011;49153;45.568;11.894;2023-02-01T04:38:04;77.93;;;34.42;;
57858;SDS011;49153;45.568;11.894;2023-02-01T04:40:30;77.53;;;33.63;;
57858;SDS011;49153;45.568;11.894;2023-02-01T04:42:56;82.55;;;37.03;;
57858;SDS011;49153;45.568;11.894;2023-02-01T04:45:21;76.45;;;33.25;;
57858;SDS011;49153;45.568;11.894;2023-02-01T04:47:46;69.25;;;30.77;;
57858;SDS011;49153;45.568;11.894;2023-02-01T04:50:13;72.25;;;33.45;;
57858;SDS011;49153;45.568;11.894;2023-02-01T04:52:39;65.40;;;30.63;;
57858;SDS011;49153;45.568;11.894;2023-02-01T04:55:05;78.88;;;32.03;;
57858;SDS011;49153;45.568;11.894;2023-02-01T04:57:31;77.93;;;33.33;;
57858;SDS011;49153;45.568;11.894;2023-02-01T04:59:56;75.80;;;33.38;;
57858;SDS011;49153;45.568;11.894;2023-02-01T05:02:22;66.55;;;29.65;;
57858;SDS011;49153;45.568;11.894;2023-02-01T05:04:48;80.00;;;35.78;;
57858;SDS011;49153;45.568;11.894;2023-02-01T05:07:13;76.53;;;36.15;;
57858;SDS011;49153;45.568;11.894;2023-02-01T05:09:39;67.43;;;31.13;;
57858;SDS011;49153;45.568;11.894;2023-02-01T05:12:04;60.30;;;26.98;;
57858;SDS011;49153;45.568;11.894;2023-02-01T05:14:48;79.60;;;35.53;;
57858;SDS011;49153;45.568;11.894;2023-02-01T05:17:14;69.82;;;30.23;;
57858;SDS011;49153;45.568;11.894;2023-02-01T05:19:39;73.70;;;33.25;;
57858;SDS011;49153;45.568;11.894;2023-02-01T05:22:05;75.60;;;32.03;;
57858;SDS011;49153;45.568;11.894;2023-02-01T05:24:30;73.82;;;31.95;;
57858;SDS011;49153;45.568;11.894;2023-02-01T05:26:55;77.63;;;34.22;;
57858;SDS011;49153;45.568;11.894;2023-02-01T05:29:21;60.40;;;28.30;;
57858;SDS011;49153;45.568;11.894;2023-02-01T05:31:47;79.07;;;34.65;;
57858;SDS011;49153;45.568;11.894;2023-02-01T05:34:13;74.43;;;32.45;;
57858;SDS011;49153;45.568;11.894;2023-02-01T05:36:39;73.63;;;32.53;;
57858;SDS011;49153;45.568;11.894;2023-02-01T05:39:04;75.82;;;31.13;;
57858;SDS011;49153;45.568;11.894;2023-02-01T05:41:30;72.20;;;30.02;;
57858;SDS011;49153;45.568;11.894;2023-02-01T05:43:55;74.57;;;33.33;;
57858;SDS011;49153;45.568;11.894;2023-02-01T05:46:21;71.93;;;32.00;;
57858;SDS011;49153;45.568;11.894;2023-02-01T05:48:46;72.25;;;33.08;;
57858;SDS011;49153;45.568;11.894;2023-02-01T05:51:11;68.38;;;31.70;;
57858;SDS011;49153;45.568;11.894;2023-02-01T05:53:38;73.55;;;31.75;;
57858;SDS011;49153;45.568;11.894;2023-02-01T05:56:03;66.38;;;30.38;;
57858;SDS011;49153;45.568;11.894;2023-02-01T05:58:29;70.00;;;30.33;;
57858;SDS011;49153;45.568;11.894;2023-02-01T06:00:55;65.07;;;29.58;;
57858;SDS011;49153;45.568;11.894;2023-02-01T06:03:21;76.45;;;36.33;;
57858;SDS011;49153;45.568;11.894;2023-02-01T06:05:47;71.97;;;32.75;;
57858;SDS011;49153;45.568;11.894;2023-02-01T06:08:12;66.93;;;30.55;;
57858;SDS011;49153;45.568;11.894;2023-02-01T06:10:40;57.80;;;28.05;;
57858;SDS011;49153;45.568;11.894;2023-02-01T06:13:05;65.60;;;29.85;;
57858;SDS011;49153;45.568;11.894;2023-02-01T06:15:31;70.22;;;31.70;;
57858;SDS011;49153;45.568;11.894;2023-02-01T06:17:57;77.40;;;30.95;;
57858;SDS011;49153;45.568;11.894;2023-02-01T06:20:23;74.45;;;32.20;;
57858;SDS011;49153;45.568;11.894;2023-02-01T06:22:48;59.78;;;27.15;;
57858;SDS011;49153;45.568;11.894;2023-02-01T06:25:14;62.50;;;27.45;;
57858;SDS011;49153;45.568;11.894;2023-02-01T06:27:39;58.88;;;26.63;;
57858;SDS011;49153;45.568;11.894;2023-02-01T06:30:05;56.65;;;25.30;;
57858;SDS011;49153;45.568;11.894;2023-02-01T06:32:31;56.97;;;26.20;;
57858;SDS011;49153;45.568;11.894;2023-02-01T06:34:57;61.00;;;26.23;;
57858;SDS011;49153;45.568;11.894;2023-02-01T06:37:23;60.80;;;26.98;;
57858;SDS011;49153;45.568;11.894;2023-02-01T06:42:19;49.88;;;20.80;;
57858;SDS011;49153;45.568;11.894;2023-02-01T06:44:45;57.35;;;26.40;;
57858;SDS011;49153;45.568;11.894;2023-02-01T06:47:10;52.25;;;23.45;;
57858;SDS011;49153;45.568;11.894;2023-02-01T06:49:36;56.55;;;25.77;;
57858;SDS011;49153;45.568;11.894;2023-02-01T06:52:02;65.60;;;27.92;;
57858;SDS011;49153;45.568;11.894;2023-02-01T06:54:27;61.50;;;27.35;;
57858;SDS011;49153;45.568;11.894;2023-02-01T06:56:53;66.85;;;29.85;;
57858;SDS011;49153;45.568;11.894;2023-02-01T06:59:19;62.65;;;27.77;;
57858;SDS011;49153;45.568;11.894;2023-02-01T07:01:44;63.72;;;27.80;;
57858;SDS011;49153;45.568;11.894;2023-02-01T07:04:10;65.88;;;29.73;;
57858;SDS011;49153;45.568;11.894;2023-02-01T07:06:36;58.92;;;27.15;;
57858;SDS011;49153;45.568;11.894;2023-02-01T07:09:02;69.75;;;30.98;;
57858;SDS011;49153;45.568;11.894;2023-02-01T07:11:28;76.97;;;30.77;;
57858;SDS011;49153;45.568;11.894;2023-02-01T07:13:53;73.93;;;31.63;;
57858;SDS011;49153;45.568;11.894;2023-02-01T07:16:19;57.45;;;27.15;;
57858;SDS011;49153;45.568;11.894;2023-02-01T07:18:45;64.15;;;28.92;;
57858;SDS011;49153;45.568;11.894;2023-02-01T07:21:11;66.68;;;30.88;;
57858;SDS011;49153;45.568;11.894;2023-02-01T07:23:37;62.08;;;29.15;;
57858;SDS011;49153;45.568;11.894;2023-02-01T07:26:04;59.50;;;28.35;;
57858;SDS011;49153;45.568;11.894;2023-02-01T07:28:31;71.55;;;29.80;;
57858;SDS011;49153;45.568;11.894;2023-02-01T07:31:02;65.95;;;31.27;;
57858;SDS011;49153;45.568;11.894;2023-02-01T07:33:29;70.95;;;31.13;;
57858;SDS011;49153;45.568;11.894;2023-02-01T07:35:54;74.40;;;31.40;;
57858;SDS011;49153;45.568;11.894;2023-02-01T07:38:19;65.45;;;30.15;;
57858;SDS011;49153;45.568;11.894;2023-02-01T07:40:46;64.60;;;29.58;;
57858;SDS011;49153;45.568;11.894;2023-02-01T07:43:12;69.53;;;32.20;;
57858;SDS011;49153;45.568;11.894;2023-02-01T07:45:37;67.38;;;31.77;;
57858;SDS011;49153;45.568;11.894;2023-02-01T07:48:03;59.95;;;29.00;;
57858;SDS011;49153;45.568;11.894;2023-02-01T07:50:29;63.35;;;28.95;;
57858;SDS011;49153;45.568;11.894;2023-02-01T07:52:54;66.10;;;30.75;;
57858;SDS011;49153;45.568;11.894;2023-02-01T07:55:20;62.15;;;29.48;;
57858;SDS011;49153;45.568;11.894;2023-02-01T07:57:46;64.60;;;30.30;;
57858;SDS011;49153;45.568;11.894;2023-02-01T08:00:12;61.25;;;28.38;;
57858;SDS011;49153;45.568;11.894;2023-02-01T08:02:57;65.25;;;28.38;;
57858;SDS011;49153;45.568;11.894;2023-02-01T08:05:25;46.22;;;21.40;;
57858;SDS011;49153;45.568;11.894;2023-02-01T08:07:51;59.95;;;28.77;;
57858;SDS011;49153;45.568;11.894;2023-02-01T08:10:17;53.67;;;26.25;;
57858;SDS011;49153;45.568;11.894;2023-02-01T08:12:44;59.00;;;27.00;;
57858;SDS011;49153;45.568;11.894;2023-02-01T08:15:13;48.55;;;22.10;;
57858;SDS011;49153;45.568;11.894;2023-02-01T08:17:40;45.22;;;19.52;;
57858;SDS011;49153;45.568;11.894;2023-02-01T08:20:05;43.75;;;20.63;;
57858;SDS011;49153;45.568;11.894;2023-02-01T08:22:32;38.45;;;19.05;;
57858;SDS011;49153;45.568;11.894;2023-02-01T08:24:57;40.58;;;19.70;;
57858;SDS011;49153;45.568;11.894;2023-02-01T08:27:26;35.97;;;17.17;;
57858;SDS011;49153;45.568;11.894;2023-02-01T08:29:52;36.03;;;17.83;;
57858;SDS011;49153;45.568;11.894;2023-02-01T08:32:19;37.08;;;17.77;;
57858;SDS011;49153;45.568;11.894;2023-02-01T08:34:44;35.22;;;16.38;;
57858;SDS011;49153;45.568;11.894;2023-02-01T08:37:09;39.67;;;18.20;;
57858;SDS011;49153;45.568;11.894;2023-02-01T08:39:35;40.08;;;19.00;;
57858;SDS011;49153;45.568;11.894;2023-02-01T08:42:01;37.67;;;18.83;;
57858;SDS011;49153;45.568;11.894;2023-02-01T08:44:45;46.63;;;20.17;;
57858;SDS011;49153;45.568;11.894;2023-02-01T08:47:12;34.92;;;17.80;;
57858;SDS011;49153;45.568;11.894;2023-02-01T08:49:37;40.80;;;19.75;;
57858;SDS011;49153;45.568;11.894;2023-02-01T08:52:03;39.25;;;19.92;;
57858;SDS011;49153;45.568;11.894;2023-02-01T08:54:28;47.00;;;23.52;;
57858;SDS011;49153;45.568;11.894;2023-02-01T08:56:54;48.67;;;24.17;;
57858;SDS011;49153;45.568;11.894;2023-02-01T08:59:19;56.53;;;26.85;;
57858;SDS011;49153;45.568;11.894;2023-02-01T09:01:45;53.05;;;26.67;;
57858;SDS011;49153;45.568;11.894;2023-02-01T09:04:10;52.17;;;26.35;;
57858;SDS011;49153;45.568;11.894;2023-02-01T09:06:36;48.97;;;24.38;;
57858;SDS011;49153;45.568;11.894;2023-02-01T09:09:01;48.97;;;23.95;;
57858;SDS011;49153;45.568;11.894;2023-02-01T09:11:27;47.60;;;22.23;;
57858;SDS011;49153;45.568;11.894;2023-02-01T09:13:52;49.22;;;23.83;;
57858;SDS011;49153;45.568;11.894;2023-02-01T09:16:18;50.90;;;23.85;;
57858;SDS011;49153;45.568;11.894;2023-02-01T09:18:43;49.72;;;24.02;;
57858;SDS011;49153;45.568;11.894;2023-02-01T09:21:09;45.88;;;23.02;;
57858;SDS011;49153;45.568;11.894;2023-02-01T09:23:34;49.38;;;22.90;;
57858;SDS011;49153;45.568;11.894;2023-02-01T09:26:00;54.65;;;25.35;;
57858;SDS011;49153;45.568;11.894;2023-02-01T09:28:26;53.40;;;24.67;;
57858;SDS011;49153;45.568;11.894;2023-02-01T09:30:58;50.47;;;24.52;;
57858;SDS011;49153;45.568;11.894;2023-02-01T09:33:25;55.50;;;25.63;;
57858;SDS011;49153;45.568;11.894;2023-02-01T09:35:58;53.00;;;24.88;;
57858;SDS011;49153;45.568;11.894;2023-02-01T09:38:25;62.80;;;30.20;;
57858;SDS011;49153;45.568;11.894;2023-02-01T09:40:52;53.88;;;26.88;;
57858;SDS011;49153;45.568;11.894;2023-02-01T09:46:11;59.47;;;26.53;;
57858;SDS011;49153;45.568;11.894;2023-02-01T09:48:55;57.10;;;26.88;;
57858;SDS011;49153;45.568;11.894;2023-02-01T09:51:31;63.28;;;28.25;;
57858;SDS011;49153;45.568;11.894;2023-02-01T09:54:02;60.80;;;27.77;;
57858;SDS011;49153;45.568;11.894;2023-02-01T09:56:36;63.47;;;29.15;;
57858;SDS011;49153;45.568;11.894;2023-02-01T10:01:47;60.42;;;29.20;;
57858;SDS011;49153;45.568;11.894;2023-02-01T10:04:13;64.43;;;28.63;;
57858;SDS011;49153;45.568;11.894;2023-02-01T10:09:20;59.13;;;28.67;;
57858;SDS011;49153;45.568;11.894;2023-02-01T10:15:03;60.65;;;29.05;;
57858;SDS011;49153;45.568;11.894;2023-02-01T10:25:55;63.55;;;30.27;;
57858;SDS011;49153;45.568;11.894;2023-02-01T10:29:15;72.30;;;31.70;;
57858;SDS011;49153;45.568;11.894;2023-02-01T10:31:42;69.22;;;32.00;;
57858;SDS011;49153;45.568;11.894;2023-02-01T10:34:19;73.70;;;34.30;;
57858;SDS011;49153;45.568;11.894;2023-02-01T10:36:57;70.28;;;31.95;;
57858;SDS011;49153;45.568;11.894;2023-02-01T10:39:26;63.55;;;30.30;;
57858;SDS011;49153;45.568;11.894;2023-02-01T10:41:52;70.72;;;33.00;;
57858;SDS011;49153;45.568;11.894;2023-02-01T10:44:22;64.07;;;30.27;;
57858;SDS011;49153;45.568;11.894;2023-02-01T10:46:53;70.82;;;31.42;;
57858;SDS011;49153;45.568;11.894;2023-02-01T10:49:24;64.90;;;29.00;;
57858;SDS011;49153;45.568;11.894;2023-02-01T10:52:02;72.10;;;32.90;;
57858;SDS011;49153;45.568;11.894;2023-02-01T10:54:42;66.43;;;31.50;;
57858;SDS011;49153;45.568;11.894;2023-02-01T10:57:09;61.55;;;30.27;;
57858;SDS011;49153;45.568;11.894;2023-02-01T10:59:36;69.40;;;32.05;;
57858;SDS011;49153;45.568;11.894;2023-02-01T11:02:05;66.20;;;32.53;;
57858;SDS011;49153;45.568;11.894;2023-02-01T11:04:42;69.23;;;32.20;;
57858;SDS011;49153;45.568;11.894;2023-02-01T11:07:13;65.35;;;31.45;;
57858;SDS011;49153;45.568;11.894;2023-02-01T11:09:48;70.47;;;33.03;;
57858;SDS011;49153;45.568;11.894;2023-02-01T11:12:23;62.70;;;31.67;;
57858;SDS011;49153;45.568;11.894;2023-02-01T11:17:50;67.93;;;32.00;;
57858;SDS011;49153;45.568;11.894;2023-02-01T11:20:17;72.25;;;32.95;;
57858;SDS011;49153;45.568;11.894;2023-02-01T11:22:52;61.78;;;32.35;;
57858;SDS011;49153;45.568;11.894;2023-02-01T11:25:19;65.22;;;30.30;;
57858;SDS011;49153;45.568;11.894;2023-02-01T11:27:46;67.03;;;31.75;;
57858;SDS011;49153;45.568;11.894;2023-02-01T11:30:17;68.40;;;33.25;;
57858;SDS011;49153;45.568;11.894;2023-02-01T11:32:47;71.65;;;32.88;;
57858;SDS011;49153;45.568;11.894;2023-02-01T11:35:16;72.13;;;33.55;;
57858;SDS011;49153;45.568;11.894;2023-02-01T11:37:44;74.68;;;33.17;;
57858;SDS011;49153;45.568;11.894;2023-02-01T11:42:59;71.03;;;34.22;;
57858;SDS011;49153;45.568;11.894;2023-02-01T11:45:32;70.55;;;33.03;;
57858;SDS011;49153;45.568;11.894;2023-02-01T11:47:59;68.05;;;32.83;;
57858;SDS011;49153;45.568;11.894;2023-02-01T11:50:49;66.25;;;31.27;;
57858;SDS011;49153;45.568;11.894;2023-02-01T11:56:25;67.95;;;31.23;;
57858;SDS011;49153;45.568;11.894;2023-02-01T12:07:11;74.13;;;33.60;;
57858;SDS011;49153;45.568;11.894;2023-02-01T12:21:33;73.35;;;34.50;;
57858;SDS011;49153;45.568;11.894;2023-02-01T12:45:54;78.60;;;38.55;;
57858;SDS011;49153;45.568;11.894;2023-02-01T12:48:31;74.55;;;35.42;;
57858;SDS011;49153;45.568;11.894;2023-02-01T12:56:38;78.00;;;38.72;;
57858;SDS011;49153;45.568;11.894;2023-02-01T13:07:44;82.97;;;41.88;;
57858;SDS011;49153;45.568;11.894;2023-02-01T13:10:33;66.00;;;33.65;;
57858;SDS011;49153;45.568;11.894;2023-02-01T13:18:39;78.55;;;38.10;;
57858;SDS011;49153;45.568;11.894;2023-02-01T13:21:10;76.80;;;36.93;;
57858;SDS011;49153;45.568;11.894;2023-02-01T13:23:49;74.47;;;36.58;;
57858;SDS011;49153;45.568;11.894;2023-02-01T13:26:16;76.10;;;37.47;;
57858;SDS011;49153;45.568;11.894;2023-02-01T13:45:16;76.57;;;36.95;;
57858;SDS011;49153;45.568;11.894;2023-02-01T13:47:46;69.90;;;35.38;;
57858;SDS011;49153;45.568;11.894;2023-02-01T13:52:52;68.40;;;33.85;;
57858;SDS011;49153;45.568;11.894;2023-02-01T13:55:27;69.25;;;34.13;;
57858;SDS011;49153;45.568;11.894;2023-02-01T14:00:37;78.90;;;37.95;;
57858;SDS011;49153;45.568;11.894;2023-02-01T14:03:08;74.67;;;36.43;;
57858;SDS011;49153;45.568;11.894;2023-02-01T14:13:25;58.58;;;31.15;;
57858;SDS011;49153;45.568;11.894;2023-02-01T14:26:19;66.10;;;33.17;;
57858;SDS011;49153;45.568;11.894;2023-02-01T14:28:48;68.07;;;32.38;;
57858;SDS011;49153;45.568;11.894;2023-02-01T14:34:01;65.20;;;32.13;;
57858;SDS011;49153;45.568;11.894;2023-02-01T14:36:45;66.63;;;31.60;;
57858;SDS011;49153;45.568;11.894;2023-02-01T14:47:47;60.00;;;29.45;;
57858;SDS011;49153;45.568;11.894;2023-02-01T14:58:06;69.75;;;33.50;;
57858;SDS011;49153;45.568;11.894;2023-02-01T15:00:47;68.28;;;32.40;;
57858;SDS011;49153;45.568;11.894;2023-02-01T15:09:10;60.38;;;28.90;;
57858;SDS011;49153;45.568;11.894;2023-02-01T15:14:21;63.88;;;30.48;;
57858;SDS011;49153;45.568;11.894;2023-02-01T15:16:46;60.70;;;30.67;;
57858;SDS011;49153;45.568;11.894;2023-02-01T15:19:19;61.67;;;29.65;;
57858;SDS011;49153;45.568;11.894;2023-02-01T15:21:50;62.28;;;30.70;;
57858;SDS011;49153;45.568;11.894;2023-02-01T15:24:21;65.15;;;30.70;;
57858;SDS011;49153;45.568;11.894;2023-02-01T15:26:48;65.72;;;32.55;;
57858;SDS011;49153;45.568;11.894;2023-02-01T15:29:15;66.75;;;31.67;;
57858;SDS011;49153;45.568;11.894;2023-02-01T15:31:46;67.28;;;31.05;;
57858;SDS011;49153;45.568;11.894;2023-02-01T15:34:14;66.25;;;31.45;;
57858;SDS011;49153;45.568;11.894;2023-02-01T15:36:41;67.78;;;33.13;;
57858;SDS011;49153;45.568;11.894;2023-02-01T15:39:23;66.95;;;32.03;;
57858;SDS011;49153;45.568;11.894;2023-02-01T15:42:13;66.10;;;30.80;;
57858;SDS011;49153;45.568;11.894;2023-02-01T15:44:44;70.22;;;33.17;;
57858;SDS011;49153;45.568;11.894;2023-02-01T15:49:39;65.53;;;32.78;;
57858;SDS011;49153;45.568;11.894;2023-02-01T15:55:03;68.13;;;31.85;;
57858;SDS011;49153;45.568;11.894;2023-02-01T15:57:34;69.28;;;31.95;;
57858;SDS011;49153;45.568;11.894;2023-02-01T16:00:03;70.65;;;33.03;;
57858;SDS011;49153;45.568;11.894;2023-02-01T16:02:51;67.45;;;32.63;;
57858;SDS011;49153;45.568;11.894;2023-02-01T16:05:39;70.00;;;32.50;;
57858;SDS011;49153;45.568;11.894;2023-02-01T16:08:12;76.63;;;35.00;;
57858;SDS011;49153;45.568;11.894;2023-02-01T16:10:42;72.35;;;33.25;;
57858;SDS011;49153;45.568;11.894;2023-02-01T16:13:10;70.93;;;33.38;;
57858;SDS011;49153;45.568;11.894;2023-02-01T16:15:36;72.97;;;33.25;;
57858;SDS011;49153;45.568;11.894;2023-02-01T16:18:02;75.65;;;35.45;;
57858;SDS011;49153;45.568;11.894;2023-02-01T16:20:27;82.13;;;36.55;;
57858;SDS011;49153;45.568;11.894;2023-02-01T16:22:54;78.70;;;37.00;;
57858;SDS011;49153;45.568;11.894;2023-02-01T16:25:20;74.70;;;35.55;;
57858;SDS011;49153;45.568;11.894;2023-02-01T16:27:45;73.88;;;35.03;;
57858;SDS011;49153;45.568;11.894;2023-02-01T16:30:10;77.63;;;35.72;;
57858;SDS011;49153;45.568;11.894;2023-02-01T16:32:36;80.80;;;37.83;;
57858;SDS011;49153;45.568;11.894;2023-02-01T16:35:11;83.60;;;37.80;;
57858;SDS011;49153;45.568;11.894;2023-02-01T16:37:44;99.68;;;44.95;;
57858;SDS011;49153;45.568;11.894;2023-02-01T16:40:17;104.65;;;45.08;;
57858;SDS011;49153;45.568;11.894;2023-02-01T16:42:44;89.50;;;41.00;;
57858;SDS011;49153;45.568;11.894;2023-02-01T16:45:11;93.35;;;43.10;;
57858;SDS011;49153;45.568;11.894;2023-02-01T16:47:37;91.95;;;41.88;;
57858;SDS011;49153;45.568;11.894;2023-02-01T16:50:05;100.72;;;44.08;;
57858;SDS011;49153;45.568;11.894;2023-02-01T16:52:41;110.57;;;47.42;;
57858;SDS011;49153;45.568;11.894;2023-02-01T16:55:14;108.63;;;48.65;;
57858;SDS011;49153;45.568;11.894;2023-02-01T16:57:41;109.55;;;48.30;;
57858;SDS011;49153;45.568;11.894;2023-02-01T17:00:08;112.05;;;46.10;;
57858;SDS011;49153;45.568;11.894;2023-02-01T17:02:36;94.13;;;43.10;;
57858;SDS011;49153;45.568;11.894;2023-02-01T17:05:03;87.53;;;39.78;;
57858;SDS011;49153;45.568;11.894;2023-02-01T17:07:29;93.72;;;41.53;;
57858;SDS011;49153;45.568;11.894;2023-02-01T17:09:55;93.63;;;41.00;;
57858;SDS011;49153;45.568;11.894;2023-02-01T17:12:27;84.65;;;40.15;;
57858;SDS011;49153;45.568;11.894;2023-02-01T17:14:54;85.03;;;39.25;;
57858;SDS011;49153;45.568;11.894;2023-02-01T17:17:20;84.50;;;38.28;;
57858;SDS011;49153;45.568;11.894;2023-02-01T17:19:47;83.63;;;38.20;;
57858;SDS011;49153;45.568;11.894;2023-02-01T17:22:17;82.60;;;38.03;;
57858;SDS011;49153;45.568;11.894;2023-02-01T17:24:43;89.10;;;39.78;;
57858;SDS011;49153;45.568;11.894;2023-02-01T17:27:09;95.70;;;41.80;;
57858;SDS011;49153;45.568;11.894;2023-02-01T17:29:34;94.00;;;41.33;;
57858;SDS011;49153;45.568;11.894;2023-02-01T17:32:00;95.00;;;41.75;;
57858;SDS011;49153;45.568;11.894;2023-02-01T17:34:26;97.95;;;43.75;;
57858;SDS011;49153;45.568;11.894;2023-02-01T17:36:52;106.13;;;46.28;;
57858;SDS011;49153;45.568;11.894;2023-02-01T17:39:18;105.75;;;45.92;;
57858;SDS011;49153;45.568;11.894;2023-02-01T17:42:02;105.60;;;45.42;;
57858;SDS011;49153;45.568;11.894;2023-02-01T17:44:29;114.63;;;48.28;;